createdAt,value
2023-04-27T00:00:25.136Z,99.90
2023-04-27T00:02:55.760Z,99.90
2023-04-27T00:05:28.394Z,99.90
2023-04-27T00:07:58.322Z,99.90
2023-04-27T00:10:28.253Z,99.90
2023-04-27T00:12:58.111Z,99.90
2023-04-27T00:15:28.063Z,99.90
2023-04-27T00:17:58.148Z,99.90
2023-04-27T00:20:30.696Z,99.90
2023-04-27T00:23:00.604Z,99.90
2023-04-27T00:25:30.662Z,99.90
2023-04-27T00:28:00.648Z,99.90
2023-04-27T00:30:30.689Z,99.90
2023-04-27T00:33:01.073Z,99.90
2023-04-27T00:35:35.334Z,99.90
2023-04-27T00:38:06.154Z,99.90
2023-04-27T00:40:37.222Z,99.90
2023-04-27T00:43:10.821Z,99.90
2023-04-27T00:45:45.596Z,99.90
2023-04-27T00:48:16.220Z,99.90
2023-04-27T00:50:48.948Z,99.90
2023-04-27T00:53:19.071Z,99.90
2023-04-27T00:55:50.077Z,99.90
2023-04-27T00:58:19.983Z,99.90
2023-04-27T01:00:49.936Z,99.90
2023-04-27T01:03:20.417Z,99.90
2023-04-27T01:05:53.358Z,99.90
2023-04-27T01:08:23.270Z,99.90
2023-04-27T01:10:53.232Z,99.90
2023-04-27T01:13:23.320Z,99.90
2023-04-27T01:15:53.260Z,99.90
2023-04-27T01:18:23.866Z,99.90
2023-04-27T01:20:56.380Z,99.90
2023-04-27T01:23:29.132Z,99.90
2023-04-27T01:25:59.142Z,99.90
2023-04-27T01:28:29.074Z,99.90
2023-04-27T01:30:59.430Z,99.90
2023-04-27T01:33:29.476Z,99.90
2023-04-27T01:35:59.657Z,99.90
2023-04-27T01:38:35.482Z,99.90
2023-04-27T01:41:09.192Z,99.90
2023-04-27T01:43:39.870Z,99.90
2023-04-27T01:46:10.599Z,99.90
2023-04-27T01:48:41.430Z,99.90
2023-04-27T01:51:11.542Z,99.90
2023-04-27T01:53:44.517Z,99.90
2023-04-27T01:56:14.639Z,99.90
2023-04-27T01:58:44.548Z,99.90
2023-04-27T02:01:14.494Z,99.90
2023-04-27T02:03:44.631Z,99.90
2023-04-27T02:06:15.848Z,99.90
2023-04-27T02:08:48.803Z,99.90
2023-04-27T02:11:19.342Z,99.90
2023-04-27T02:13:49.281Z,99.90
2023-04-27T02:16:19.183Z,99.90
2023-04-27T02:18:49.211Z,99.90
2023-04-27T02:21:19.675Z,99.90
2023-04-27T02:23:52.265Z,99.90
2023-04-27T02:26:23.873Z,99.90
2023-04-27T02:28:54.056Z,99.90
2023-04-27T02:31:24.493Z,99.90
2023-04-27T02:33:54.471Z,99.90
2023-04-27T02:36:24.511Z,99.90
2023-04-27T02:38:56.967Z,99.90
2023-04-27T02:41:28.229Z,99.90
2023-04-27T02:43:58.076Z,99.90
2023-04-27T02:46:28.036Z,99.90
2023-04-27T02:48:58.599Z,99.90
2023-04-27T02:51:28.574Z,99.90
2023-04-27T02:54:01.561Z,99.90
2023-04-27T02:56:31.770Z,99.90
2023-04-27T02:59:02.055Z,99.90
2023-04-27T03:01:32.336Z,99.90
2023-04-27T03:04:02.431Z,99.90
2023-04-27T03:06:32.500Z,99.90
2023-04-27T03:09:05.608Z,99.90
2023-04-27T03:11:37.433Z,99.90
2023-04-27T03:14:08.032Z,99.90
2023-04-27T03:16:38.546Z,99.90
2023-04-27T03:19:08.680Z,99.90
2023-04-27T03:21:38.818Z,99.90
2023-04-27T03:24:11.966Z,99.90
2023-04-27T03:26:41.897Z,99.90
2023-04-27T03:29:11.925Z,99.90
2023-04-27T03:31:42.092Z,99.90
2023-04-27T03:34:12.334Z,99.90
2023-04-27T03:36:42.652Z,99.90
2023-04-27T03:39:16.395Z,99.90
2023-04-27T03:41:46.442Z,99.90
2023-04-27T03:44:16.483Z,99.90
2023-04-27T03:46:46.530Z,99.90
2023-04-27T03:49:16.637Z,99.90
2023-04-27T03:51:46.614Z,99.90
2023-04-27T03:54:20.624Z,99.90
2023-04-27T03:56:50.685Z,99.90
2023-04-27T03:59:21.762Z,99.90
2023-04-27T04:01:53.268Z,99.90
2023-04-27T04:04:23.352Z,99.90
2023-04-27T04:06:54.188Z,99.90
2023-04-27T04:09:26.637Z,99.90
2023-04-27T04:11:58.019Z,99.90
2023-04-27T04:14:27.966Z,99.90
2023-04-27T04:16:58.514Z,99.90
2023-04-27T04:19:28.647Z,99.90
2023-04-27T04:21:58.609Z,99.90
2023-04-27T04:24:31.466Z,99.90
2023-04-27T04:27:01.490Z,99.90
2023-04-27T04:29:31.501Z,99.90
2023-04-27T04:32:01.635Z,99.90
2023-04-27T04:34:33.796Z,99.90
2023-04-27T04:37:04.784Z,99.90
2023-04-27T04:39:37.275Z,99.90
2023-04-27T04:42:07.876Z,99.90
2023-04-27T04:44:38.968Z,99.90
2023-04-27T04:47:10.207Z,99.90
2023-04-27T04:49:40.070Z,99.90
2023-04-27T04:52:09.985Z,99.90
2023-04-27T04:54:42.467Z,99.90
2023-04-27T04:57:12.540Z,99.90
2023-04-27T04:59:42.700Z,99.90
2023-04-27T05:02:12.588Z,99.90
2023-04-27T05:04:42.529Z,99.90
2023-04-27T05:07:15.005Z,99.90
2023-04-27T05:09:48.087Z,99.90
2023-04-27T05:12:17.984Z,99.90
2023-04-27T05:14:48.616Z,99.90
2023-04-27T05:17:18.578Z,99.90
2023-04-27T05:19:48.485Z,99.90
2023-04-27T05:22:18.473Z,99.90
2023-04-27T05:24:51.052Z,99.90
2023-04-27T05:27:21.021Z,99.90
2023-04-27T05:29:51.036Z,99.90
2023-04-27T05:32:21.279Z,99.90
2023-04-27T05:34:51.476Z,99.90
2023-04-27T05:37:21.333Z,99.90
2023-04-27T05:39:53.973Z,99.90
2023-04-27T05:42:23.844Z,99.90
2023-04-27T05:44:53.757Z,99.90
2023-04-27T05:47:24.008Z,99.90
2023-04-27T05:49:54.961Z,99.90
2023-04-27T05:52:30.918Z,99.90
2023-04-27T05:55:04.021Z,99.90
2023-04-27T05:57:34.003Z,99.90
2023-04-27T06:00:07.493Z,99.90
2023-04-27T06:02:42.272Z,99.90
2023-04-27T06:05:12.924Z,99.90
2023-04-27T06:07:44.022Z,99.90
2023-04-27T06:10:17.249Z,99.90
2023-04-27T06:12:47.286Z,99.90
2023-04-27T06:15:17.288Z,99.90
2023-04-27T06:17:47.438Z,99.90
2023-04-27T06:20:17.497Z,99.90
2023-04-27T06:22:47.412Z,99.90
2023-04-27T06:25:20.014Z,99.90
2023-04-27T06:27:49.898Z,99.90
2023-04-27T06:30:20.014Z,99.90
2023-04-27T06:32:49.958Z,99.90
2023-04-27T06:35:20.142Z,99.90
2023-04-27T06:37:50.050Z,99.90
2023-04-27T06:40:22.650Z,99.90
2023-04-27T06:42:52.543Z,99.90
2023-04-27T06:45:22.727Z,99.90
2023-04-27T06:47:52.618Z,99.90
2023-04-27T06:50:22.571Z,99.90
2023-04-27T06:52:52.596Z,99.90
2023-04-27T06:55:25.398Z,99.90
2023-04-27T06:57:55.288Z,99.90
2023-04-27T07:00:25.634Z,99.90
2023-04-27T07:02:56.024Z,99.90
2023-04-27T07:05:26.201Z,99.90
2023-04-27T07:07:56.165Z,99.30
2023-04-27T07:10:28.652Z,98.00
2023-04-27T07:12:58.561Z,96.60
2023-04-27T07:15:28.858Z,95.00
2023-04-27T07:17:58.799Z,95.20
2023-04-27T07:20:28.755Z,95.10
2023-04-27T07:22:58.928Z,93.20
2023-04-27T07:25:31.447Z,92.80
2023-04-27T07:28:01.303Z,91.40
2023-04-27T07:30:31.556Z,90.70
2023-04-27T07:33:01.715Z,89.80
2023-04-27T07:35:32.150Z,84.90
2023-04-27T07:38:03.767Z,83.40
2023-04-27T07:40:36.512Z,79.30
2023-04-27T07:43:06.951Z,76.20
2023-04-27T07:45:37.459Z,75.60
2023-04-27T07:48:08.271Z,76.90
2023-04-27T07:50:38.300Z,75.60
2023-04-27T08:13:18.201Z,56.30
2023-04-27T08:15:48.143Z,56.60
2023-04-27T08:18:18.106Z,54.40
2023-04-27T08:20:48.304Z,54.10
2023-04-27T08:23:18.483Z,54.00
2023-04-27T08:25:50.942Z,51.10
2023-04-27T08:28:20.809Z,51.50
2023-04-27T08:30:50.666Z,51.80
2023-04-27T08:33:21.312Z,52.60
2023-04-27T08:35:51.294Z,51.50
2023-04-27T08:38:22.213Z,51.50
2023-04-27T08:40:56.252Z,51.10
2023-04-27T08:43:26.237Z,50.30
2023-04-27T08:45:56.654Z,49.90
2023-04-27T08:48:26.741Z,48.40
2023-04-27T08:50:58.841Z,47.60
2023-04-27T08:53:28.753Z,48.00
2023-04-27T08:56:02.019Z,48.30
2023-04-27T08:58:41.407Z,50.00
2023-04-27T09:01:11.521Z,49.80
2023-04-27T09:03:41.771Z,50.20
2023-04-27T09:06:12.007Z,48.70
2023-04-27T09:08:46.553Z,48.40
2023-04-27T09:11:20.021Z,46.80
2023-04-27T09:13:49.958Z,44.80
2023-04-27T09:16:26.483Z,44.40
2023-04-27T09:18:56.823Z,45.70
2023-04-27T09:21:27.989Z,45.50
2023-04-27T09:23:59.207Z,45.40
2023-04-27T09:26:32.183Z,44.90
2023-04-27T09:29:02.079Z,44.30
2023-04-27T09:31:35.848Z,44.10
2023-04-27T09:34:07.516Z,43.50
2023-04-27T09:36:37.550Z,41.20
2023-04-27T09:39:07.600Z,40.50
2023-04-27T09:41:40.202Z,40.30
2023-04-27T09:44:12.423Z,40.30
2023-04-27T09:46:45.783Z,41.80
2023-04-27T09:49:16.701Z,41.20
2023-04-27T09:51:46.609Z,42.90
2023-04-27T09:54:17.486Z,43.50
2023-04-27T09:57:01.745Z,42.90
2023-04-27T09:59:44.595Z,41.90
2023-04-27T10:02:25.339Z,44.40
2023-04-27T10:05:29.931Z,43.30
2023-04-27T10:08:00.918Z,44.00
2023-04-27T10:10:31.367Z,43.20
2023-04-27T10:13:05.020Z,43.50
2023-04-27T10:15:34.892Z,43.80
2023-04-27T10:18:08.883Z,43.90
2023-04-27T10:20:41.075Z,43.20
2023-04-27T10:23:11.453Z,42.50
2023-04-27T10:25:43.235Z,42.70
2023-04-27T10:28:19.387Z,42.20
2023-04-27T10:30:51.175Z,44.10
2023-04-27T10:33:22.205Z,44.30
2023-04-27T10:35:58.608Z,43.50
2023-04-27T10:38:32.858Z,43.10
2023-04-27T10:41:05.796Z,43.50
2023-04-27T10:43:39.197Z,41.70
2023-04-27T10:46:13.970Z,41.60
2023-04-27T10:48:44.889Z,41.40
2023-04-27T10:51:18.372Z,40.70
2023-04-27T10:53:48.328Z,41.10
2023-04-27T10:56:18.326Z,41.80
2023-04-27T10:58:50.869Z,43.10
2023-04-27T11:01:27.923Z,43.10
2023-04-27T11:03:59.095Z,43.70
2023-04-27T11:06:30.535Z,45.00
2023-04-27T11:09:00.685Z,44.50
2023-04-27T11:11:31.026Z,43.70
2023-04-27T11:14:03.830Z,44.20
2023-04-27T11:16:34.221Z,45.60
2023-04-27T11:19:08.075Z,46.00
2023-04-27T11:21:38.018Z,47.70
2023-04-27T11:24:08.919Z,49.10
2023-04-27T11:26:38.991Z,49.80
2023-04-27T11:29:14.491Z,49.20
2023-04-27T11:31:47.816Z,49.80
2023-04-27T11:34:19.693Z,48.80
2023-04-27T11:37:10.659Z,47.40
2023-04-27T11:39:48.759Z,47.30
2023-04-27T11:42:22.101Z,47.80
2023-04-27T11:44:59.482Z,45.10
2023-04-27T11:47:31.316Z,44.70
2023-04-27T11:50:02.547Z,44.30
2023-04-27T11:52:32.448Z,43.80
2023-04-27T11:55:03.753Z,44.00
2023-04-27T11:57:36.096Z,43.20
2023-04-27T12:00:14.434Z,43.40
2023-04-27T12:02:45.587Z,43.90
2023-04-27T12:05:15.951Z,44.90
2023-04-27T12:07:46.457Z,45.70
2023-04-27T12:10:16.717Z,45.30
2023-04-27T12:12:46.856Z,44.70
2023-04-27T12:15:19.466Z,45.00
2023-04-27T12:17:49.359Z,45.50
2023-04-27T12:20:19.465Z,46.20
2023-04-27T12:22:49.347Z,45.50
2023-04-27T12:25:19.963Z,45.60
2023-04-27T12:27:50.304Z,45.00
2023-04-27T12:30:23.351Z,44.90
2023-04-27T12:32:53.408Z,45.30
2023-04-27T12:35:23.606Z,45.90
2023-04-27T12:37:53.530Z,46.70
2023-04-27T12:40:23.629Z,46.90
2023-04-27T12:42:53.669Z,47.90
2023-04-27T12:45:26.201Z,48.70
2023-04-27T12:48:03.305Z,49.80
2023-04-27T12:50:33.923Z,50.70
2023-04-27T12:53:03.823Z,50.80
2023-04-27T12:55:34.605Z,50.30
2023-04-27T12:58:05.155Z,49.20
2023-04-27T13:00:38.726Z,48.70
2023-04-27T13:03:09.630Z,48.30
2023-04-27T13:05:39.881Z,47.10
2023-04-27T13:08:09.809Z,47.60
2023-04-27T13:10:41.509Z,47.20
2023-04-27T13:13:11.800Z,47.10
2023-04-27T13:15:44.256Z,47.60
2023-04-27T13:18:14.243Z,46.80
2023-04-27T13:20:44.308Z,47.30
2023-04-27T13:23:14.507Z,47.10
2023-04-27T13:25:44.445Z,47.10
2023-04-27T13:28:14.393Z,46.70
2023-04-27T13:30:48.952Z,45.90
2023-04-27T13:33:22.387Z,45.30
2023-04-27T13:35:53.853Z,46.10
2023-04-27T13:38:23.749Z,45.90
2023-04-27T13:40:53.638Z,46.40
2023-04-27T13:43:23.585Z,45.60
2023-04-27T13:45:57.206Z,45.80
2023-04-27T13:48:28.493Z,46.30
2023-04-27T13:50:58.701Z,45.70
2023-04-27T13:53:28.797Z,45.60
2023-04-27T13:56:00.717Z,44.70
2023-04-27T13:58:31.130Z,45.60
2023-04-27T14:01:03.704Z,45.10
2023-04-27T14:03:34.069Z,45.10
2023-04-27T14:06:04.332Z,45.50
2023-04-27T14:08:34.572Z,46.20
2023-04-27T14:11:05.966Z,46.00
2023-04-27T14:13:35.880Z,46.80
2023-04-27T14:16:09.840Z,45.90
2023-04-27T14:18:39.838Z,47.20
2023-04-27T14:21:09.905Z,46.10
2023-04-27T14:23:39.837Z,45.90
2023-04-27T14:26:10.379Z,45.70
2023-04-27T14:28:40.272Z,45.60
2023-04-27T14:31:12.838Z,45.30
2023-04-27T14:33:42.767Z,45.50
2023-04-27T14:36:12.969Z,44.70
2023-04-27T14:38:42.855Z,45.30
2023-04-27T14:41:12.775Z,47.00
2023-04-27T14:43:44.902Z,48.00
2023-04-27T14:46:20.736Z,48.70
2023-04-27T14:48:51.853Z,49.10
2023-04-27T14:51:21.833Z,50.10
2023-04-27T14:53:51.802Z,49.60
2023-04-27T14:56:23.336Z,50.10
2023-04-27T14:58:55.291Z,51.70
2023-04-27T15:01:27.969Z,50.40
2023-04-27T15:03:58.932Z,50.30
2023-04-27T15:06:30.555Z,50.40
2023-04-27T15:09:00.714Z,49.60
2023-04-27T15:11:30.666Z,49.60
2023-04-27T15:14:00.552Z,49.60
2023-04-27T15:16:33.268Z,50.10
2023-04-27T15:19:03.532Z,50.30
2023-04-27T15:21:33.971Z,50.50
2023-04-27T15:24:03.814Z,51.00
2023-04-27T15:26:34.201Z,50.50
2023-04-27T15:29:04.120Z,50.60
2023-04-27T15:31:37.248Z,51.20
2023-04-27T15:34:07.167Z,50.90
2023-04-27T15:36:37.161Z,51.30
2023-04-27T15:39:09.900Z,50.80
2023-04-27T15:41:40.951Z,50.30
2023-04-27T15:44:10.836Z,50.10
2023-04-27T15:46:43.355Z,50.80
2023-04-27T15:49:14.168Z,51.60
2023-04-27T15:51:44.262Z,50.90
2023-04-27T15:54:14.298Z,50.90
2023-04-27T15:56:44.227Z,51.20
2023-04-27T15:59:14.992Z,50.70
2023-04-27T16:01:47.687Z,50.70
2023-04-27T16:04:17.836Z,51.50
2023-04-27T16:06:48.753Z,52.30
2023-04-27T16:09:19.013Z,53.30
2023-04-27T16:11:48.968Z,53.80
2023-04-27T16:14:18.809Z,53.50
2023-04-27T16:16:51.608Z,53.30
2023-04-27T16:19:22.591Z,53.10
2023-04-27T16:21:52.589Z,53.80
2023-04-27T16:24:22.621Z,53.70
2023-04-27T16:26:52.549Z,54.40
2023-04-27T16:29:22.511Z,53.90
2023-04-27T16:31:55.714Z,52.40
2023-04-27T16:34:25.816Z,52.40
2023-04-27T16:36:55.690Z,52.20
2023-04-27T16:39:25.672Z,52.80
2023-04-27T16:41:55.544Z,52.90
2023-04-27T16:44:26.334Z,53.00
2023-04-27T16:46:58.859Z,52.80
2023-04-27T16:49:28.748Z,53.60
2023-04-27T16:51:59.147Z,54.40
2023-04-27T16:54:29.058Z,53.50
2023-04-27T16:56:59.216Z,53.20
2023-04-27T16:59:29.126Z,53.30
2023-04-27T17:02:09.492Z,52.90
2023-04-27T17:04:47.105Z,53.20
2023-04-27T17:07:17.624Z,53.10
2023-04-27T17:09:47.593Z,53.80
2023-04-27T17:12:17.512Z,53.50
2023-04-27T17:14:47.432Z,55.10
2023-04-27T17:17:20.273Z,56.00
2023-04-27T17:19:50.236Z,56.10
2023-04-27T17:22:21.389Z,55.60
2023-04-27T17:24:51.333Z,56.00
2023-04-27T17:27:21.848Z,56.20
2023-04-27T17:29:51.920Z,57.40
2023-04-27T17:32:24.569Z,56.80
2023-04-27T17:34:54.535Z,57.90
2023-04-27T17:37:24.428Z,59.20
2023-04-27T17:39:54.679Z,60.50
2023-04-27T17:42:24.603Z,61.80
2023-04-27T17:44:54.512Z,63.50
2023-04-27T17:47:27.594Z,64.40
2023-04-27T17:49:57.812Z,65.60
2023-04-27T17:52:27.824Z,68.40
2023-04-27T17:54:58.612Z,68.10
2023-04-27T17:57:28.560Z,69.40
2023-04-27T17:59:58.524Z,69.50
2023-04-27T18:02:31.114Z,70.00
2023-04-27T18:05:01.369Z,70.60
2023-04-27T18:07:31.224Z,70.90
2023-04-27T18:10:01.130Z,72.20
2023-04-27T18:12:31.163Z,75.20
2023-04-27T18:15:03.809Z,77.90
2023-04-27T18:17:38.424Z,77.00
2023-04-27T18:20:10.736Z,77.50
2023-04-27T18:22:41.298Z,79.40
2023-04-27T18:25:13.466Z,78.60
2023-04-27T18:27:45.422Z,82.80
2023-04-27T18:30:16.125Z,83.70
2023-04-27T18:32:48.716Z,84.00
2023-04-27T18:35:18.681Z,85.30
2023-04-27T18:37:49.067Z,86.60
2023-04-27T18:40:21.835Z,90.40
2023-04-27T18:42:51.806Z,91.00
2023-04-27T18:45:21.806Z,91.50
2023-04-27T19:07:59.878Z,99.90
2023-04-27T19:10:29.875Z,99.90
2023-04-27T19:13:00.275Z,99.90
2023-04-27T19:15:30.809Z,99.70
2023-04-27T19:18:10.610Z,98.70
2023-04-27T19:20:41.737Z,99.40
2023-04-27T19:23:13.674Z,99.70
2023-04-27T19:25:43.831Z,99.90
2023-04-27T19:28:15.240Z,99.90
2023-04-27T19:30:45.299Z,99.90
2023-04-27T19:33:20.357Z,99.90
2023-04-27T19:35:50.574Z,99.90
2023-04-27T19:38:22.599Z,99.90
2023-04-27T19:40:52.639Z,99.90
2023-04-27T19:43:22.520Z,99.90
2023-04-27T19:45:52.543Z,99.90
2023-04-27T19:48:25.121Z,99.90
2023-04-27T19:50:55.133Z,99.90
2023-04-27T19:53:25.070Z,99.90
2023-04-27T19:55:55.304Z,99.90
2023-04-27T19:58:25.294Z,99.90
2023-04-27T20:00:56.100Z,99.90
2023-04-27T20:03:28.706Z,99.90
2023-04-27T20:05:59.215Z,99.90
2023-04-27T20:08:29.228Z,99.90
2023-04-27T20:10:59.210Z,99.90
2023-04-27T20:13:29.248Z,99.90
2023-04-27T20:15:59.393Z,99.90
2023-04-27T20:18:32.517Z,99.90
2023-04-27T20:21:02.426Z,99.90
2023-04-27T20:23:32.279Z,99.90
2023-04-27T20:26:02.346Z,99.90
2023-04-27T20:28:32.664Z,99.90
2023-04-27T20:31:02.553Z,99.90
2023-04-27T20:33:35.033Z,99.90
2023-04-27T20:36:14.063Z,99.90
2023-04-27T20:38:47.152Z,99.90
2023-04-27T20:41:17.294Z,99.90
2023-04-27T20:43:47.665Z,99.90
2023-04-27T20:46:17.606Z,99.90
2023-04-27T20:48:50.855Z,99.90
2023-04-27T20:51:21.558Z,99.90
2023-04-27T20:53:51.652Z,99.90
2023-04-27T20:56:21.623Z,99.90
2023-04-27T20:58:51.551Z,99.90
2023-04-27T21:01:21.680Z,99.90
2023-04-27T21:03:54.286Z,99.90
2023-04-27T21:06:24.334Z,99.90
2023-04-27T21:08:54.502Z,99.90
2023-04-27T21:11:24.889Z,99.90
2023-04-27T21:13:55.575Z,99.90
2023-04-27T21:16:25.623Z,99.90
2023-04-27T21:18:58.152Z,99.90
2023-04-27T21:21:28.077Z,99.90
2023-04-27T21:24:07.087Z,99.90
2023-04-27T21:26:47.865Z,99.90
2023-04-27T21:29:17.749Z,99.90
2023-04-27T21:31:47.697Z,99.90
2023-04-27T21:34:20.151Z,99.90
2023-04-27T21:36:50.004Z,99.90
2023-04-27T21:39:19.880Z,99.90
2023-04-27T21:41:49.967Z,99.90
2023-04-27T21:44:19.890Z,99.90
2023-04-27T21:46:49.872Z,99.90
2023-04-27T21:49:22.463Z,99.90
2023-04-27T21:51:52.432Z,99.90
2023-04-27T21:54:22.411Z,99.90
2023-04-27T21:56:52.308Z,99.90
2023-04-27T21:59:22.539Z,99.90
2023-04-27T22:01:52.741Z,99.90
2023-04-27T22:04:25.525Z,99.90
2023-04-27T22:06:55.527Z,99.90
2023-04-27T22:09:25.443Z,99.90
2023-04-27T22:11:55.328Z,99.90
2023-04-27T22:14:25.214Z,99.90
2023-04-27T22:16:55.538Z,99.90
2023-04-27T22:19:28.213Z,99.90
2023-04-27T22:21:58.177Z,99.90
2023-04-27T22:24:28.322Z,99.90
2023-04-27T22:26:58.269Z,99.90
2023-04-27T22:29:28.306Z,99.90
2023-04-27T22:31:58.587Z,99.90
2023-04-27T22:34:31.301Z,99.90
2023-04-27T22:37:02.249Z,99.90
2023-04-27T22:39:33.057Z,99.90
2023-04-27T22:42:03.018Z,99.90
2023-04-27T22:44:33.173Z,99.90
2023-04-27T22:47:04.577Z,99.90
2023-04-27T22:49:37.554Z,99.90
2023-04-27T22:52:08.198Z,99.90
2023-04-27T22:54:38.250Z,99.90
2023-04-27T22:57:08.208Z,99.90
2023-04-27T22:59:38.114Z,99.90
2023-04-27T23:02:07.968Z,99.90
2023-04-27T23:04:41.237Z,99.90
2023-04-27T23:07:11.304Z,99.90
2023-04-27T23:09:42.890Z,99.90
2023-04-27T23:12:12.811Z,99.90
2023-04-27T23:14:43.025Z,99.90
2023-04-27T23:17:13.060Z,99.90
2023-04-27T23:19:46.919Z,99.90
2023-04-27T23:22:16.794Z,99.90
2023-04-27T23:24:46.715Z,99.90
2023-04-27T23:27:16.672Z,99.90
2023-04-27T23:29:46.782Z,99.90
2023-04-27T23:32:17.037Z,99.90
2023-04-27T23:34:50.430Z,99.90
2023-04-27T23:37:20.409Z,99.90
2023-04-27T23:39:50.351Z,99.90
2023-04-27T23:42:20.292Z,99.90
2023-04-27T23:44:50.256Z,99.90
2023-04-27T23:47:20.151Z,99.90
2023-04-27T23:49:52.641Z,99.90
2023-04-27T23:52:22.605Z,99.90
2023-04-27T23:54:52.530Z,99.90
2023-04-27T23:57:22.440Z,99.90
2023-04-27T23:59:52.320Z,99.90
